Terminal Aerodrome Forecast
Issued by NWS

Home | Current Version | Previous Version | Text Only | Print | Product List | Glossary On
Versions: 1 2 3 4 5 6 7 8 9 10 11 12 13 14 15 16 17 18
000
FTUS45 KABQ 271300 AAA
TAFLVS
TAF AMD
KLVS 271344Z 2714/2812 01012KT P6SM OVC035
      TEMPO 2714/2717 4SM -RA BR OVC015
     FM271700 03018G26KT P6SM -RA OVC021
     FM280200 04010KT P6SM OVC015
     FM280700 01006KT P6SM OVC009=

USA.gov is the U.S. government's official web portal to all federal, state and local government web resources and services.